Thursday, September 20, 2018, 6:53 PM EDT
Back to Local

KBID, Block Island, Block Island State Airport

Location: Block Island, RI, United States Lat: 41.167
Local Time: 6:53 PM EDT (22:53 GMT) Lon: -71.567
Time Zone: US/Eastern Elev: 108 ft

Show me the last for .
Show Decoded

2018-09-20 18:21 METAR KBID 202221Z AUTO 10SM SCT016 BKN028 18/15 A3025 RMK AO2 =
2018-09-20 17:56 METAR KBID 202156Z AUTO 07007KT 10SM FEW016 SCT048 18/14 A3025 RMK AO2 SLP248
                 T01780144 =
2018-09-20 16:56 METAR KBID 202056Z AUTO 06010G14KT 10SM SCT013 SCT018 18/16 A3023 RMK AO2 SLP242
                 T01830156 50000 =
2018-09-20 16:45 METAR KBID 202045Z AUTO 06008KT 10SM BKN015 19/16 A3024 RMK AO2 =
2018-09-20 15:56 METAR KBID 201956Z AUTO 06008KT 10SM FEW017 19/16 A3024 RMK AO2 SLP244 T01940156
                 =
2018-09-20 14:56 METAR KBID 201856Z AUTO 05009G15KT 10SM FEW041 20/16 A3023 RMK AO2 SLP240
                 T02000156 =
2018-09-20 12:56 METAR KBID 201656Z AUTO 03012G18KT 10SM FEW030 SCT035 BKN055 20/16 A3024 RMK AO2
                 SLP244 T02000156 =
2018-09-20 12:16 METAR KBID 201616Z AUTO 03012G16KT 10SM FEW018 OVC031 19/15 A3025 RMK AO2 =
2018-09-20 11:56 METAR KBID 201556Z AUTO 03012G15KT 10SM FEW018 BKN027 OVC033 19/16 A3024 RMK AO2
                 SLP244 T01890156 =
2018-09-20 11:17 METAR KBID 201517Z AUTO 04010G16KT 10SM FEW016 OVC031 19/15 A3024 RMK AO2 =
2018-09-20 10:56 METAR KBID 201456Z AUTO 04009G15KT 10SM OVC014 18/16 A3024 RMK AO2 SLP243
                 T01830156 53022 =
2018-09-20 09:56 METAR KBID 201356Z AUTO 03011G16KT 10SM BKN012 OVC047 18/16 A3021 RMK AO2 SLP234
                 T01780156 =
2018-09-20 08:56 METAR KBID 201256Z AUTO 03009KT 10SM OVC012 17/15 A3019 RMK AO2 SLP228 T01720150
                 =
2018-09-20 07:56 METAR KBID 201156Z AUTO 03011G17KT 10SM OVC012 17/14 A3017 RMK AO2 SLP221 7////
                 T01670144 10167 20156 53019 =
2018-09-20 06:56 METAR KBID 201056Z AUTO 03009G16KT 10SM BKN012 16/14 A3015 RMK AO2 SLP212
                 T01610144 =
2018-09-20 06:19 METAR KBID 201019Z AUTO 03011G16KT 10SM BKN014 16/14 A3013 RMK AO2 =
2018-09-20 05:56 METAR KBID 200956Z AUTO 02006KT 10SM FEW014 16/14 A3013 RMK AO2 SLP206 T01560144
                 =
2018-09-20 05:47 METAR KBID 200947Z AUTO 02008KT 10SM SCT014 16/14 A3013 RMK AO2 =
2018-09-20 05:03 METAR KBID 200903Z AUTO 01007KT 10SM OVC014 16/14 A3012 RMK AO2 =
2018-09-20 04:56 METAR KBID 200856Z AUTO 02008KT 10SM BKN016 OVC020 16/14 A3012 RMK AO2 SLP202
                 T01610144 53010 =
2018-09-20 03:56 METAR KBID 200756Z AUTO 03011G19KT 10SM BKN016 17/14 A3010 RMK AO2 SLP196
                 T01670144 =
2018-09-20 03:21 METAR KBID 200721Z AUTO 03013G20KT 10SM BKN016 17/14 A3010 RMK AO2 =
2018-09-20 02:56 METAR KBID 200656Z AUTO 04014G21KT 10SM FEW018 17/14 A3009 RMK AO2 SLP191
                 T01670139 =
2018-09-20 01:56 METAR KBID 200556Z AUTO 05012G22KT 10SM FEW016 16/13 A3008 RMK AO2 SLP190
                 T01610133 10172 20161 50004 =
2018-09-20 00:56 METAR KBID 200456Z AUTO 03011G17KT 10SM FEW018 16/13 A3009 RMK AO2 SLP192
                 T01610133 =
2018-09-20 00:40 METAR KBID 200440Z AUTO 03012G18KT 10SM SCT018 BKN050 16/13 A3009 RMK AO2 =
2018-09-20 00:33 METAR KBID 200433Z AUTO 03013G18KT 10SM BKN018 BKN050 16/13 A3009 RMK AO2 =
2018-09-20 00:17 METAR KBID 200417Z AUTO 04011G17KT 10SM SCT018 16/13 A3009 RMK AO2 =
2018-09-19 23:56 METAR KBID 200356Z AUTO 04010G19KT 10SM BKN020 16/13 A3008 RMK AO2 SLP188
                 T01610133 402060161 =
2018-09-19 22:56 METAR KBID 200256Z AUTO 03010G19KT 10SM OVC020 17/14 A3007 RMK AO2 SLP187
                 T01670139 51018 =
2018-09-19 21:56 METAR KBID 200156Z AUTO 04013G21KT 10SM OVC018 16/13 A3006 RMK AO2 SLP183
                 T01610133 =
2018-09-19 21:39 METAR KBID 200139Z AUTO 04013G20KT 10SM OVC016 17/13 A3006 RMK AO2 =
2018-09-19 20:56 METAR KBID 200056Z AUTO 04013G23KT 10SM OVC014 17/14 A3004 RMK AO2 SLP175
                 T01670139 =
2018-09-19 20:11 METAR KBID 200011Z AUTO 05013G19KT 10SM OVC014 17/15 A3003 RMK AO2 =
2018-09-19 19:56 METAR KBID 192356Z AUTO 06012KT 10SM OVC016 17/15 A3002 RMK AO2 SLP169 6////
                 T01720150 10206 20172 51023 =
2018-09-19 18:56 METAR KBID 192256Z AUTO 04012G16KT 10SM OVC016 18/15 A3001 RMK AO2 SLP165
                 T01780150 =

Support USWX by starting your Amazon purchase here.